sensor_id;sensor_type;location;lat;lon;timestamp;pressure;altitude;pressure_sealevel;temperature;humidity
18784;BME280;9520;50.954;6.968;2022-08-11T00:00:12;101561.09;;;30.12;28.95
18784;BME280;9520;50.954;6.968;2022-08-11T00:00:37;101557.38;;;30.13;28.97
18784;BME280;9520;50.954;6.968;2022-08-11T00:01:04;101566.53;;;30.12;28.93
18784;BME280;9520;50.954;6.968;2022-08-11T00:01:28;101560.34;;;30.10;29.04
18784;BME280;9520;50.954;6.968;2022-08-11T00:01:52;101563.06;;;30.10;28.87
18784;BME280;9520;50.954;6.968;2022-08-11T00:02:24;101547.50;;;30.00;28.33
18784;BME280;9520;50.954;6.968;2022-08-11T00:02:49;101562.59;;;30.05;28.86
18784;BME280;9520;50.954;6.968;2022-08-11T00:03:13;101559.00;;;30.04;28.97
18784;BME280;9520;50.954;6.968;2022-08-11T00:03:42;101562.59;;;30.05;29.20
18784;BME280;9520;50.954;6.968;2022-08-11T00:04:05;101553.69;;;30.02;29.16
18784;BME280;9520;50.954;6.968;2022-08-11T00:04:35;101556.69;;;29.99;29.20
18784;BME280;9520;50.954;6.968;2022-08-11T00:05:03;101562.22;;;29.98;29.34
18784;BME280;9520;50.954;6.968;2022-08-11T00:05:26;101557.78;;;29.97;29.44
18784;BME280;9520;50.954;6.968;2022-08-11T00:05:51;101556.03;;;29.96;29.22
18784;BME280;9520;50.954;6.968;2022-08-11T00:06:22;101560.63;;;29.95;29.07
18784;BME280;9520;50.954;6.968;2022-08-11T00:06:47;101559.63;;;29.96;29.30
18784;BME280;9520;50.954;6.968;2022-08-11T00:07:09;101556.91;;;29.96;29.16
18784;BME280;9520;50.954;6.968;2022-08-11T00:07:31;101555.81;;;29.99;28.92
18784;BME280;9520;50.954;6.968;2022-08-11T00:07:55;101552.44;;;29.95;29.07
18784;BME280;9520;50.954;6.968;2022-08-11T00:08:23;101555.66;;;30.00;29.08
18784;BME280;9520;50.954;6.968;2022-08-11T00:08:49;101552.06;;;30.00;29.17
18784;BME280;9520;50.954;6.968;2022-08-11T00:09:14;101552.22;;;29.98;28.72
18784;BME280;9520;50.954;6.968;2022-08-11T00:09:38;101552.34;;;29.97;28.88
18784;BME280;9520;50.954;6.968;2022-08-11T00:10:01;101547.00;;;29.95;29.09
18784;BME280;9520;50.954;6.968;2022-08-11T00:10:24;101556.91;;;29.96;28.93
18784;BME280;9520;50.954;6.968;2022-08-11T00:10:50;101552.59;;;29.94;29.05
18784;BME280;9520;50.954;6.968;2022-08-11T00:11:15;101554.56;;;29.92;29.47
18784;BME280;9520;50.954;6.968;2022-08-11T00:11:40;101560.88;;;29.92;29.14
18784;BME280;9520;50.954;6.968;2022-08-11T00:12:04;101555.56;;;29.91;28.94
18784;BME280;9520;50.954;6.968;2022-08-11T00:12:34;101551.84;;;29.92;28.92
18784;BME280;9520;50.954;6.968;2022-08-11T00:12:57;101558.44;;;29.89;28.80
18784;BME280;9520;50.954;6.968;2022-08-11T00:13:21;101558.50;;;29.88;29.22
18784;BME280;9520;50.954;6.968;2022-08-11T00:13:45;101555.91;;;29.86;29.07
18784;BME280;9520;50.954;6.968;2022-08-11T00:14:13;101557.63;;;29.87;29.11
18784;BME280;9520;50.954;6.968;2022-08-11T00:14:35;101553.94;;;29.88;28.98
18784;BME280;9520;50.954;6.968;2022-08-11T00:15:00;101531.31;;;29.77;29.30
18784;BME280;9520;50.954;6.968;2022-08-11T00:15:22;101552.13;;;29.89;28.93
18784;BME280;9520;50.954;6.968;2022-08-11T00:15:45;101556.66;;;29.88;28.81
18784;BME280;9520;50.954;6.968;2022-08-11T00:16:15;101555.78;;;29.88;28.65
18784;BME280;9520;50.954;6.968;2022-08-11T00:16:38;101552.97;;;29.89;28.72
18784;BME280;9520;50.954;6.968;2022-08-11T00:17:03;101554.91;;;29.87;28.74
18784;BME280;9520;50.954;6.968;2022-08-11T00:17:29;101561.97;;;29.90;29.18
18784;BME280;9520;50.954;6.968;2022-08-11T00:17:56;101543.66;;;29.81;29.21
18784;BME280;9520;50.954;6.968;2022-08-11T00:18:19;101549.97;;;29.81;28.72
18784;BME280;9520;50.954;6.968;2022-08-11T00:18:42;101562.31;;;29.85;28.96
18784;BME280;9520;50.954;6.968;2022-08-11T00:19:06;101557.75;;;29.86;29.03
18784;BME280;9520;50.954;6.968;2022-08-11T00:19:31;101556.88;;;29.85;29.08
18784;BME280;9520;50.954;6.968;2022-08-11T00:20:15;101553.69;;;29.80;29.22
18784;BME280;9520;50.954;6.968;2022-08-11T00:20:41;101554.81;;;29.78;29.43
18784;BME280;9520;50.954;6.968;2022-08-11T00:21:04;101558.41;;;29.78;29.32
18784;BME280;9520;50.954;6.968;2022-08-11T00:21:27;101559.38;;;29.77;29.17
18784;BME280;9520;50.954;6.968;2022-08-11T00:22:09;101555.06;;;29.75;29.04
18784;BME280;9520;50.954;6.968;2022-08-11T00:22:34;101557.03;;;29.73;29.18
18784;BME280;9520;50.954;6.968;2022-08-11T00:23:01;101543.69;;;29.70;29.20
18784;BME280;9520;50.954;6.968;2022-08-11T00:23:25;101549.84;;;29.72;29.05
18784;BME280;9520;50.954;6.968;2022-08-11T00:23:53;101553.56;;;29.71;29.13
18784;BME280;9520;50.954;6.968;2022-08-11T00:24:15;101549.03;;;29.60;29.51
18784;BME280;9520;50.954;6.968;2022-08-11T00:24:39;101547.03;;;29.62;29.48
18784;BME280;9520;50.954;6.968;2022-08-11T00:25:17;101555.69;;;29.67;29.15
18784;BME280;9520;50.954;6.968;2022-08-11T00:25:42;101554.97;;;29.65;29.30
18784;BME280;9520;50.954;6.968;2022-08-11T00:26:05;101556.66;;;29.66;29.25
18784;BME280;9520;50.954;6.968;2022-08-11T00:26:28;101547.91;;;29.63;29.25
18784;BME280;9520;50.954;6.968;2022-08-11T00:26:53;101550.63;;;29.63;29.37
18784;BME280;9520;50.954;6.968;2022-08-11T00:27:15;101554.19;;;29.63;29.15
18784;BME280;9520;50.954;6.968;2022-08-11T00:27:39;101562.34;;;29.63;29.10
18784;BME280;9520;50.954;6.968;2022-08-11T00:28:01;101560.50;;;29.64;29.23
18784;BME280;9520;50.954;6.968;2022-08-11T00:28:25;101559.63;;;29.63;28.99
18784;BME280;9520;50.954;6.968;2022-08-11T00:28:48;101555.06;;;29.64;28.95
18784;BME280;9520;50.954;6.968;2022-08-11T00:29:11;101557.03;;;29.61;29.16
18784;BME280;9520;50.954;6.968;2022-08-11T00:29:33;101551.00;;;29.58;29.05
18784;BME280;9520;50.954;6.968;2022-08-11T00:29:58;101551.00;;;29.58;29.25
18784;BME280;9520;50.954;6.968;2022-08-11T00:30:21;101555.28;;;29.60;29.18
18784;BME280;9520;50.954;6.968;2022-08-11T00:30:43;101553.44;;;29.61;29.20
18784;BME280;9520;50.954;6.968;2022-08-11T00:31:06;101558.88;;;29.61;29.20
18784;BME280;9520;50.954;6.968;2022-08-11T00:31:30;101559.91;;;29.60;29.32
18784;BME280;9520;50.954;6.968;2022-08-11T00:31:56;101547.28;;;29.59;29.18
18784;BME280;9520;50.954;6.968;2022-08-11T00:32:18;101557.41;;;29.57;29.22
18784;BME280;9520;50.954;6.968;2022-08-11T00:32:42;101552.94;;;29.56;29.36
18784;BME280;9520;50.954;6.968;2022-08-11T00:33:06;101558.28;;;29.57;29.36
18784;BME280;9520;50.954;6.968;2022-08-11T00:33:33;101552.94;;;29.56;29.25
18784;BME280;9520;50.954;6.968;2022-08-11T00:34:09;101551.00;;;29.58;29.30
18784;BME280;9520;50.954;6.968;2022-08-11T00:34:35;101550.13;;;29.57;29.27
18784;BME280;9520;50.954;6.968;2022-08-11T00:34:59;101554.56;;;29.58;29.22
18784;BME280;9520;50.954;6.968;2022-08-11T00:35:44;101546.66;;;29.55;29.34
18784;BME280;9520;50.954;6.968;2022-08-11T00:36:19;101545.16;;;29.51;29.64
18784;BME280;9520;50.954;6.968;2022-08-11T00:36:50;101541.72;;;29.49;29.38
18784;BME280;9520;50.954;6.968;2022-08-11T00:37:17;101550.50;;;29.53;29.37
18784;BME280;9520;50.954;6.968;2022-08-11T00:37:44;101553.22;;;29.53;29.27
18784;BME280;9520;50.954;6.968;2022-08-11T00:38:09;101548.66;;;29.53;29.42
18784;BME280;9520;50.954;6.968;2022-08-11T00:38:38;101549.63;;;29.52;29.32
18784;BME280;9520;50.954;6.968;2022-08-11T00:39:03;101551.47;;;29.52;29.56
18784;BME280;9520;50.954;6.968;2022-08-11T00:39:26;101545.31;;;29.50;29.54
18784;BME280;9520;50.954;6.968;2022-08-11T00:39:52;101541.72;;;29.49;29.65
18784;BME280;9520;50.954;6.968;2022-08-11T00:41:02;101551.13;;;29.45;30.04
18784;BME280;9520;50.954;6.968;2022-08-11T00:41:31;101543.94;;;29.44;30.06
18784;BME280;9520;50.954;6.968;2022-08-11T00:42:13;101548.63;;;29.42;29.93
18784;BME280;9520;50.954;6.968;2022-08-11T00:42:43;101546.91;;;29.41;29.56
18784;BME280;9520;50.954;6.968;2022-08-11T00:43:17;101545.03;;;29.42;29.67
18784;BME280;9520;50.954;6.968;2022-08-11T00:44:31;101542.59;;;29.39;30.16
18784;BME280;9520;50.954;6.968;2022-08-11T00:45:03;101549.88;;;29.38;29.62
18784;BME280;9520;50.954;6.968;2022-08-11T00:45:34;101540.84;;;29.38;29.89
18784;BME280;9520;50.954;6.968;2022-08-11T00:46:09;101548.75;;;29.41;29.33
18784;BME280;9520;50.954;6.968;2022-08-11T00:46:41;101547.16;;;29.38;29.65
18784;BME280;9520;50.954;6.968;2022-08-11T00:47:16;101543.56;;;29.38;29.84
18784;BME280;9520;50.954;6.968;2022-08-11T00:47:51;101551.72;;;29.38;29.67
18784;BME280;9520;50.954;6.968;2022-08-11T00:48:24;101548.91;;;29.39;29.88
18784;BME280;9520;50.954;6.968;2022-08-11T00:49:01;101541.84;;;29.37;29.76
18784;BME280;9520;50.954;6.968;2022-08-11T00:49:43;101545.53;;;29.36;29.89
18784;BME280;9520;50.954;6.968;2022-08-11T00:50:13;101549.38;;;29.33;30.02
18784;BME280;9520;50.954;6.968;2022-08-11T00:50:48;101543.06;;;29.33;29.82
18784;BME280;9520;50.954;6.968;2022-08-11T00:51:15;101544.06;;;29.32;29.82
18784;BME280;9520;50.954;6.968;2022-08-11T00:51:52;101542.53;;;29.28;29.81
18784;BME280;9520;50.954;6.968;2022-08-11T00:52:46;101548.63;;;29.31;29.52
18784;BME280;9520;50.954;6.968;2022-08-11T00:53:24;101545.03;;;29.31;29.81
18784;BME280;9520;50.954;6.968;2022-08-11T00:54:01;101545.78;;;29.33;29.64
18784;BME280;9520;50.954;6.968;2022-08-11T00:54:40;101547.75;;;29.31;29.68
18784;BME280;9520;50.954;6.968;2022-08-11T00:55:30;101542.44;;;29.29;29.83
18784;BME280;9520;50.954;6.968;2022-08-11T00:59:20;101553.41;;;29.28;30.00
18784;BME280;9520;50.954;6.968;2022-08-11T01:00:11;101550.69;;;29.28;29.79
18784;BME280;9520;50.954;6.968;2022-08-11T01:00:47;101553.41;;;29.28;29.94
18784;BME280;9520;50.954;6.968;2022-08-11T01:01:22;101556.13;;;29.28;29.64
18784;BME280;9520;50.954;6.968;2022-08-11T01:01:57;101541.56;;;29.29;29.75
18784;BME280;9520;50.954;6.968;2022-08-11T01:02:25;101544.28;;;29.29;29.76
18784;BME280;9520;50.954;6.968;2022-08-11T01:03:18;101547.00;;;29.29;29.71
18784;BME280;9520;50.954;6.968;2022-08-11T01:04:05;101550.47;;;29.31;30.29
18784;BME280;9520;50.954;6.968;2022-08-11T01:05:55;101539.09;;;29.26;30.12
18784;BME280;9520;50.954;6.968;2022-08-11T01:06:42;101550.81;;;29.26;29.89
18784;BME280;9520;50.954;6.968;2022-08-11T01:08:59;101554.53;;;29.25;30.33
18784;BME280;9520;50.954;6.968;2022-08-11T01:09:48;101560.09;;;29.24;30.80
18784;BME280;9520;50.954;6.968;2022-08-11T01:10:39;101550.19;;;29.23;30.59
18784;BME280;9520;50.954;6.968;2022-08-11T01:11:33;101527.72;;;29.09;30.59
18784;BME280;9520;50.954;6.968;2022-08-11T01:12:39;101552.19;;;29.21;30.32
18784;BME280;9520;50.954;6.968;2022-08-11T01:13:13;101552.41;;;29.17;29.98
18784;BME280;9520;50.954;6.968;2022-08-11T01:14:52;101557.63;;;29.21;30.06
18784;BME280;9520;50.954;6.968;2022-08-11T01:16:06;101546.00;;;29.18;29.81
18784;BME280;9520;50.954;6.968;2022-08-11T01:16:51;101551.53;;;29.17;29.86
18784;BME280;9520;50.954;6.968;2022-08-11T01:17:50;101545.50;;;29.13;30.06
18784;BME280;9520;50.954;6.968;2022-08-11T01:18:59;;;;29.11;
18784;BME280;9520;50.954;6.968;2022-08-11T01:19:54;101547.34;;;29.13;30.27
18784;BME280;9520;50.954;6.968;2022-08-11T01:23:56;101555.25;;;29.05;30.01
18784;BME280;9520;50.954;6.968;2022-08-11T01:25:02;101557.09;;;29.04;30.15
18784;BME280;9520;50.954;6.968;2022-08-11T01:25:54;101552.53;;;29.05;29.99
18784;BME280;9520;50.954;6.968;2022-08-11T01:27:46;101547.94;;;28.94;30.81
18784;BME280;9520;50.954;6.968;2022-08-11T01:29:38;101550.16;;;29.00;30.50
18784;BME280;9520;50.954;6.968;2022-08-11T01:30:54;101550.91;;;29.02;29.92
18784;BME280;9520;50.954;6.968;2022-08-11T01:31:45;101556.34;;;29.02;29.77
18784;BME280;9520;50.954;6.968;2022-08-11T01:32:40;101546.69;;;28.98;30.50
18784;BME280;9520;50.954;6.968;2022-08-11T01:33:56;101552.59;;;28.92;30.81
18784;BME280;9520;50.954;6.968;2022-08-11T01:34:58;101544.81;;;28.88;30.57
18784;BME280;9520;50.954;6.968;2022-08-11T01:35:43;101554.81;;;28.87;30.70
18784;BME280;9520;50.954;6.968;2022-08-11T01:36:46;101555.06;;;28.84;31.02
18784;BME280;9520;50.954;6.968;2022-08-11T01:38:37;101552.34;;;28.84;30.24
18784;BME280;9520;50.954;6.968;2022-08-11T01:40:17;101555.31;;;28.81;30.29
18784;BME280;9520;50.954;6.968;2022-08-11T01:40:58;101553.69;;;28.79;30.32
18784;BME280;9520;50.954;6.968;2022-08-11T01:41:57;101550.09;;;28.78;30.56
18784;BME280;9520;50.954;6.968;2022-08-11T01:43:03;101560.09;;;28.77;30.58
18784;BME280;9520;50.954;6.968;2022-08-11T01:44:40;101558.50;;;28.75;30.85
18784;BME280;9520;50.954;6.968;2022-08-11T01:45:25;101557.53;;;28.76;30.54
18784;BME280;9520;50.954;6.968;2022-08-11T01:45:55;101555.78;;;28.75;30.46
18784;BME280;9520;50.954;6.968;2022-08-11T01:46:25;101543.41;;;28.71;30.51
18784;BME280;9520;50.954;6.968;2022-08-11T01:46:51;101546.00;;;28.72;30.33
18784;BME280;9520;50.954;6.968;2022-08-11T01:47:25;101551.44;;;28.72;30.87
18784;BME280;9520;50.954;6.968;2022-08-11T01:48:21;101548.84;;;28.71;30.88
18784;BME280;9520;50.954;6.968;2022-08-11T01:48:56;101549.59;;;28.73;30.54
18784;BME280;9520;50.954;6.968;2022-08-11T01:49:55;101553.38;;;28.70;30.58
18784;BME280;9520;50.954;6.968;2022-08-11T01:50:44;101545.13;;;28.72;30.63
18784;BME280;9520;50.954;6.968;2022-08-11T01:51:22;101549.69;;;28.71;30.63
18784;BME280;9520;50.954;6.968;2022-08-11T01:52:00;101545.25;;;28.70;30.85
18784;BME280;9520;50.954;6.968;2022-08-11T01:52:29;101552.53;;;28.70;30.34
18784;BME280;9520;50.954;6.968;2022-08-11T01:53:09;101544.47;;;28.68;30.83
18784;BME280;9520;50.954;6.968;2022-08-11T01:53:38;101550.03;;;28.67;30.54
18784;BME280;9520;50.954;6.968;2022-08-11T01:54:08;101547.19;;;28.68;30.77
18784;BME280;9520;50.954;6.968;2022-08-11T01:54:41;101549.03;;;28.68;30.80
18784;BME280;9520;50.954;6.968;2022-08-11T01:55:11;101551.75;;;28.68;30.64
18784;BME280;9520;50.954;6.968;2022-08-11T01:55:46;101550.16;;;28.65;30.57
18784;BME280;9520;50.954;6.968;2022-08-11T01:57:30;101557.09;;;28.69;30.98
18784;BME280;9520;50.954;6.968;2022-08-11T01:58:02;101557.19;;;28.68;30.85
18784;BME280;9520;50.954;6.968;2022-08-11T01:58:33;101545.59;;;28.66;30.90
18784;BME280;9520;50.954;6.968;2022-08-11T01:59:12;101553.84;;;28.64;30.75
18784;BME280;9520;50.954;6.968;2022-08-11T01:59:37;101553.00;;;28.64;30.80
18784;BME280;9520;50.954;6.968;2022-08-11T02:00:13;101552.13;;;28.63;30.82
18784;BME280;9520;50.954;6.968;2022-08-11T02:00:47;101555.69;;;28.64;30.93
18784;BME280;9520;50.954;6.968;2022-08-11T02:01:26;101552.22;;;28.62;31.12
18784;BME280;9520;50.954;6.968;2022-08-11T02:02:22;101560.25;;;28.63;30.87
18784;BME280;9520;50.954;6.968;2022-08-11T02:03:11;101559.41;;;28.63;31.25
18784;BME280;9520;50.954;6.968;2022-08-11T02:03:42;101570.16;;;28.64;30.96
18784;BME280;9520;50.954;6.968;2022-08-11T02:04:17;101552.22;;;28.62;30.82
18784;BME280;9520;50.954;6.968;2022-08-11T02:04:54;101554.09;;;28.61;31.15
18784;BME280;9520;50.954;6.968;2022-08-11T02:05:28;101554.31;;;28.58;31.14
18784;BME280;9520;50.954;6.968;2022-08-11T02:05:59;101553.44;;;28.58;31.28
18784;BME280;9520;50.954;6.968;2022-08-11T02:06:47;101559.75;;;28.58;31.19
18784;BME280;9520;50.954;6.968;2022-08-11T02:07:20;101556.16;;;28.58;31.24
18784;BME280;9520;50.954;6.968;2022-08-11T02:07:54;101552.72;;;28.56;31.20
18784;BME280;9520;50.954;6.968;2022-08-11T02:08:26;101549.25;;;28.54;31.35
18784;BME280;9520;50.954;6.968;2022-08-11T02:08:58;101539.72;;;28.48;31.32
18784;BME280;9520;50.954;6.968;2022-08-11T02:09:32;101554.66;;;28.54;31.24
18784;BME280;9520;50.954;6.968;2022-08-11T02:10:17;101554.78;;;28.52;31.10
18784;BME280;9520;50.954;6.968;2022-08-11T02:11:04;101558.25;;;28.54;31.33
18784;BME280;9520;50.954;6.968;2022-08-11T02:11:51;101550.47;;;28.50;31.51
18784;BME280;9520;50.954;6.968;2022-08-11T02:12:40;101554.91;;;28.51;31.27
18784;BME280;9520;50.954;6.968;2022-08-11T02:13:19;101556.75;;;28.50;31.36
18784;BME280;9520;50.954;6.968;2022-08-11T02:14:06;101558.50;;;28.51;31.34
18784;BME280;9520;50.954;6.968;2022-08-11T02:14:38;101554.91;;;28.51;31.48
18784;BME280;9520;50.954;6.968;2022-08-11T02:15:22;101558.72;;;28.48;31.70
18784;BME280;9520;50.954;6.968;2022-08-11T02:15:51;101551.44;;;28.49;31.68
18784;BME280;9520;50.954;6.968;2022-08-11T02:16:28;101548.97;;;28.46;31.75
18784;BME280;9520;50.954;6.968;2022-08-11T02:17:11;101557.84;;;28.48;31.81
18784;BME280;9520;50.954;6.968;2022-08-11T02:17:46;101546.25;;;28.46;31.62
18784;BME280;9520;50.954;6.968;2022-08-11T02:18:15;101548.84;;;28.47;31.24
18784;BME280;9520;50.954;6.968;2022-08-11T02:18:50;101552.94;;;28.53;31.54
18784;BME280;9520;50.954;6.968;2022-08-11T02:19:39;101552.94;;;28.53;31.99
18784;BME280;9520;50.954;6.968;2022-08-11T02:20:25;101555.44;;;28.56;31.66
18784;BME280;9520;50.954;6.968;2022-08-11T02:21:09;101551.19;;;28.52;32.24
18784;BME280;9520;50.954;6.968;2022-08-11T02:22:14;101552.19;;;28.51;31.81
18784;BME280;9520;50.954;6.968;2022-08-11T02:23:00;101549.72;;;28.48;31.36
18784;BME280;9520;50.954;6.968;2022-08-11T02:24:03;101559.59;;;28.49;31.65
18784;BME280;9520;50.954;6.968;2022-08-11T02:24:33;101549.94;;;28.45;31.74
18784;BME280;9520;50.954;6.968;2022-08-11T02:24:59;101554.25;;;28.47;31.44
18784;BME280;9520;50.954;6.968;2022-08-11T02:25:29;101549.84;;;28.46;31.73
18784;BME280;9520;50.954;6.968;2022-08-11T02:25:58;101535.41;;;28.46;31.52
18784;BME280;9520;50.954;6.968;2022-08-11T02:26:27;101551.34;;;28.50;31.46
18784;BME280;9520;50.954;6.968;2022-08-11T02:26:59;101552.31;;;28.49;31.70
18784;BME280;9520;50.954;6.968;2022-08-11T02:27:25;101556.88;;;28.49;32.04
18784;BME280;9520;50.954;6.968;2022-08-11T02:27:57;101554.06;;;28.50;32.04
18784;BME280;9520;50.954;6.968;2022-08-11T02:28:25;101539.34;;;28.42;31.92
18784;BME280;9520;50.954;6.968;2022-08-11T02:29:00;101561.78;;;28.44;31.82
18784;BME280;9520;50.954;6.968;2022-08-11T02:29:31;101546.13;;;28.47;31.18
18784;BME280;9520;50.954;6.968;2022-08-11T02:29:58;101546.00;;;28.49;30.76
18784;BME280;9520;50.954;6.968;2022-08-11T02:30:31;101553.69;;;28.55;31.72
18784;BME280;9520;50.954;6.968;2022-08-11T02:31:02;101557.03;;;28.58;31.37
18784;BME280;9520;50.954;6.968;2022-08-11T02:32:17;101558.66;;;28.61;31.21
18784;BME280;9520;50.954;6.968;2022-08-11T02:33:11;101554.31;;;28.58;31.48
18784;BME280;9520;50.954;6.968;2022-08-11T02:33:47;101557.03;;;28.58;31.08
18784;BME280;9520;50.954;6.968;2022-08-11T02:34:16;101548.88;;;28.58;30.97
18784;BME280;9520;50.954;6.968;2022-08-11T02:34:48;101554.31;;;28.58;30.91
18784;BME280;9520;50.954;6.968;2022-08-11T02:35:27;101560.38;;;28.62;30.98
18784;BME280;9520;50.954;6.968;2022-08-11T02:35:57;101549.50;;;28.62;31.53
18784;BME280;9520;50.954;6.968;2022-08-11T02:36:24;101553.97;;;28.63;31.85
18784;BME280;9520;50.954;6.968;2022-08-11T02:36:54;101557.44;;;28.65;31.04
18784;BME280;9520;50.954;6.968;2022-08-11T02:37:23;101545.81;;;28.63;30.93
18784;BME280;9520;50.954;6.968;2022-08-11T02:37:52;101557.34;;;28.66;31.16
18784;BME280;9520;50.954;6.968;2022-08-11T02:38:25;101553.75;;;28.66;31.21
18784;BME280;9520;50.954;6.968;2022-08-11T02:38:54;101553.84;;;28.64;31.35
18784;BME280;9520;50.954;6.968;2022-08-11T02:39:22;101546.06;;;28.60;31.80
18784;BME280;9520;50.954;6.968;2022-08-11T02:39:56;101533.31;;;28.49;31.08
18784;BME280;9520;50.954;6.968;2022-08-11T02:40:27;101551.38;;;28.61;30.86
18784;BME280;9520;50.954;6.968;2022-08-11T02:41:00;101560.38;;;28.62;30.81
18784;BME280;9520;50.954;6.968;2022-08-11T02:41:25;101548.78;;;28.60;31.02
18784;BME280;9520;50.954;6.968;2022-08-11T02:42:31;101554.09;;;28.61;31.50
18784;BME280;9520;50.954;6.968;2022-08-11T02:43:17;101548.78;;;28.60;31.37
18784;BME280;9520;50.954;6.968;2022-08-11T02:43:48;101553.44;;;28.58;31.34
18784;BME280;9520;50.954;6.968;2022-08-11T02:44:23;101550.72;;;28.58;31.54
18784;BME280;9520;50.954;6.968;2022-08-11T02:44:58;101548.03;;;28.58;31.68
18784;BME280;9520;50.954;6.968;2022-08-11T02:45:41;101554.31;;;28.58;31.50
18784;BME280;9520;50.954;6.968;2022-08-11T02:46:19;101552.72;;;28.56;31.63
18784;BME280;9520;50.954;6.968;2022-08-11T02:46:50;101543.81;;;28.54;31.63
18784;BME280;9520;50.954;6.968;2022-08-11T02:47:35;101553.44;;;28.58;31.39
18784;BME280;9520;50.954;6.968;2022-08-11T02:48:05;101554.31;;;28.58;31.24
18784;BME280;9520;50.954;6.968;2022-08-11T02:48:58;101558.66;;;28.61;31.58
18784;BME280;9520;50.954;6.968;2022-08-11T02:49:49;101558.41;;;28.64;31.55
18784;BME280;9520;50.954;6.968;2022-08-11T02:50:30;101547.03;;;28.59;31.35
18784;BME280;9520;50.954;6.968;2022-08-11T02:51:05;101555.69;;;28.64;31.70
18784;BME280;9520;50.954;6.968;2022-08-11T02:51:38;101553.22;;;28.61;31.64
18784;BME280;9520;50.954;6.968;2022-08-11T02:52:04;101557.91;;;28.59;31.95
18784;BME280;9520;50.954;6.968;2022-08-11T02:52:35;101555.19;;;28.59;31.91
18784;BME280;9520;50.954;6.968;2022-08-11T02:53:06;101558.00;;;28.57;31.78
18784;BME280;9520;50.954;6.968;2022-08-11T02:53:36;101564.09;;;28.61;31.41
18784;BME280;9520;50.954;6.968;2022-08-11T02:54:09;101554.44;;;28.57;31.50
18784;BME280;9520;50.954;6.968;2022-08-11T02:54:39;101556.81;;;28.61;31.68
18784;BME280;9520;50.954;6.968;2022-08-11T02:55:15;101556.06;;;28.59;31.91
18784;BME280;9520;50.954;6.968;2022-08-11T02:56:04;101556.06;;;28.59;31.94
18784;BME280;9520;50.954;6.968;2022-08-11T02:56:38;101561.38;;;28.61;31.75
18784;BME280;9520;50.954;6.968;2022-08-11T02:57:10;101564.97;;;28.61;31.72
18784;BME280;9520;50.954;6.968;2022-08-11T02:57:39;101561.50;;;28.59;31.90
18784;BME280;9520;50.954;6.968;2022-08-11T02:58:09;101558.88;;;28.58;31.71
18784;BME280;9520;50.954;6.968;2022-08-11T02:58:47;101550.00;;;28.56;32.07
18784;BME280;9520;50.954;6.968;2022-08-11T02:59:42;101555.66;;;28.53;31.97
18784;BME280;9520;50.954;6.968;2022-08-11T03:00:13;101554.56;;;28.55;32.18
18784;BME280;9520;50.954;6.968;2022-08-11T03:00:45;101554.56;;;28.55;32.13
18784;BME280;9520;50.954;6.968;2022-08-11T03:01:15;101556.88;;;28.49;31.90
18784;BME280;9520;50.954;6.968;2022-08-11T03:01:43;101550.72;;;28.47;32.56
18784;BME280;9520;50.954;6.968;2022-08-11T03:02:13;101554.41;;;28.46;32.66
18784;BME280;9520;50.954;6.968;2022-08-11T03:02:58;101563.06;;;28.51;31.99
18784;BME280;9520;50.954;6.968;2022-08-11T03:03:25;101563.06;;;28.51;32.02
18784;BME280;9520;50.954;6.968;2022-08-11T03:03:54;101545.91;;;28.50;32.30
18784;BME280;9520;50.954;6.968;2022-08-11T03:04:22;101560.97;;;28.54;32.13
18784;BME280;9520;50.954;6.968;2022-08-11T03:05:04;101556.41;;;28.55;32.00
18784;BME280;9520;50.954;6.968;2022-08-11T03:05:41;101557.38;;;28.54;32.18
18784;BME280;9520;50.954;6.968;2022-08-11T03:06:08;101557.38;;;28.54;31.67
18784;BME280;9520;50.954;6.968;2022-08-11T03:06:36;101553.91;;;28.52;30.86
18784;BME280;9520;50.954;6.968;2022-08-11T03:07:05;101555.53;;;28.54;30.69
18784;BME280;9520;50.954;6.968;2022-08-11T03:08:04;101559.75;;;28.58;31.42
18784;BME280;9520;50.954;6.968;2022-08-11T03:08:44;101558.78;;;28.59;31.28
18784;BME280;9520;50.954;6.968;2022-08-11T03:09:16;101556.69;;;28.63;31.58
18784;BME280;9520;50.954;6.968;2022-08-11T03:09:43;101554.31;;;28.58;31.45
18784;BME280;9520;50.954;6.968;2022-08-11T03:10:16;101556.69;;;28.63;31.63
18784;BME280;9520;50.954;6.968;2022-08-11T03:10:47;101551.25;;;28.63;31.18
18784;BME280;9520;50.954;6.968;2022-08-11T03:11:51;101546.94;;;28.60;31.52
18784;BME280;9520;50.954;6.968;2022-08-11T03:12:43;101553.09;;;28.62;31.70
18784;BME280;9520;50.954;6.968;2022-08-11T03:13:28;101552.22;;;28.62;31.71
18784;BME280;9520;50.954;6.968;2022-08-11T03:14:14;101535.91;;;28.51;32.38
18784;BME280;9520;50.954;6.968;2022-08-11T03:15:00;101556.94;;;28.60;32.30
18784;BME280;9520;50.954;6.968;2022-08-11T03:15:45;101549.75;;;28.59;32.99
18784;BME280;9520;50.954;6.968;2022-08-11T03:16:30;101552.47;;;28.59;32.78
18784;BME280;9520;50.954;6.968;2022-08-11T03:17:19;101559.75;;;28.58;32.27
18784;BME280;9520;50.954;6.968;2022-08-11T03:17:56;101555.19;;;28.59;32.32
18784;BME280;9520;50.954;6.968;2022-08-11T03:18:27;101540.84;;;28.57;32.38
18784;BME280;9520;50.954;6.968;2022-08-11T03:18:55;101560.16;;;28.65;32.39
18784;BME280;9520;50.954;6.968;2022-08-11T03:19:29;101551.75;;;28.68;32.15
18784;BME280;9520;50.954;6.968;2022-08-11T03:20:05;101556.47;;;28.66;32.11
18784;BME280;9520;50.954;6.968;2022-08-11T03:20:37;101555.44;;;28.67;31.98
18784;BME280;9520;50.954;6.968;2022-08-11T03:21:08;101548.41;;;28.64;30.81
18784;BME280;9520;50.954;6.968;2022-08-11T03:21:36;101554.72;;;28.65;31.20
18784;BME280;9520;50.954;6.968;2022-08-11T03:22:28;101552.53;;;28.70;31.68
18784;BME280;9520;50.954;6.968;2022-08-11T03:22:58;101554.25;;;28.71;31.42
18784;BME280;9520;50.954;6.968;2022-08-11T03:23:26;101557.94;;;28.70;31.38
18784;BME280;9520;50.954;6.968;2022-08-11T03:23:56;101543.88;;;28.65;31.13
18784;BME280;9520;50.954;6.968;2022-08-11T03:24:21;101555.22;;;28.70;31.35